Time;durP1;ratioP1;P1;durP2;ratioP2;P2;SDS_P1;SDS_P2;PMS_P1;PMS_P2;Temp;Humidity;BMP_temperature;BMP_pressure;BME280_temperature;BME280_humidity;BME280_pressure;Samples;Min_cycle;Max_cycle;Signal;HPM_P1;HPM_P2
2023/05/15 00:34:39;;;;;;;7.20;4.90;;;;;;;11.52;99.14;98402.33;273467;1269;22328;-86
2023/05/15 00:41:02;;;;;;;7.10;5.80;;;;;;;11.50;99.32;98392.46;273669;1269;23046;-86
2023/05/15 00:47:04;;;;;;;10.50;5.70;;;;;;;11.50;99.73;98381.58;273342;1269;22899;-85
2023/05/15 01:48:01;;;;;;;10.10;6.90;;;;;;;11.36;100.00;98337.92;273767;1269;22225;-86
2023/05/15 01:54:24;;;;;;;8.90;6.90;;;;;;;11.35;100.00;98327.75;273431;1269;22198;-86
2023/05/15 02:09:18;;;;;;;8.50;7.00;;;;;;;11.33;100.00;98304.90;273195;1269;22089;-87
2023/05/15 02:15:20;;;;;;;9.60;6.60;;;;;;;11.33;100.00;98290.89;273742;1269;23773;-86
2023/05/15 02:21:21;;;;;;;10.20;6.90;;;;;;;11.32;100.00;98288.38;270409;1269;22550;-86
2023/05/15 02:27:27;;;;;;;10.20;6.90;;;;;;;11.31;100.00;98280.41;271008;1269;22308;-86
2023/05/15 02:33:34;;;;;;;9.60;7.30;;;;;;;11.30;100.00;98272.10;273320;1269;22335;-86
2023/05/15 02:47:36;;;;;;;10.50;7.10;;;;;;;11.33;100.00;98263.17;273810;1275;22225;-86
2023/05/15 02:53:39;;;;;;;10.60;7.60;;;;;;;11.35;100.00;98257.61;270611;1269;22566;-85
2023/05/15 02:59:40;;;;;;;13.10;7.90;;;;;;;11.34;100.00;98257.69;271122;1269;22603;-86
2023/05/15 03:13:22;;;;;;;10.00;8.10;;;;;;;11.36;100.00;98245.46;273731;1254;23164;-85
2023/05/15 03:19:23;;;;;;;12.50;7.90;;;;;;;11.38;100.00;98244.13;273216;1269;23647;-85
2023/05/15 03:25:25;;;;;;;10.70;7.50;;;;;;;11.41;100.00;98248.48;271273;1260;23828;-87
2023/05/15 03:31:29;;;;;;;10.00;8.00;;;;;;;11.42;100.00;98251.08;270925;1269;23194;-87
2023/05/15 03:37:31;;;;;;;12.80;8.10;;;;;;;11.44;100.00;98247.71;271597;1269;22569;-85
2023/05/15 03:43:32;;;;;;;9.20;7.20;;;;;;;11.47;100.00;98239.94;273194;1269;22241;-86
2023/05/15 03:49:33;;;;;;;8.60;7.10;;;;;;;11.52;100.00;98235.45;271483;1269;23782;-85
2023/05/15 08:26:33;;;;;;;3.30;2.60;;;;;;;14.62;100.00;98123.93;265434;1305;545070;-83
2023/05/15 08:32:35;;;;;;;3.40;2.60;;;;;;;14.85;100.00;98123.80;271773;1281;23819;-83
2023/05/15 08:38:37;;;;;;;3.30;2.40;;;;;;;15.02;100.00;98128.73;271760;1279;243996;-82
2023/05/15 08:44:40;;;;;;;4.40;3.20;;;;;;;15.16;100.00;98134.34;272194;1263;22370;-84
2023/05/15 08:50:43;;;;;;;4.90;2.90;;;;;;;15.32;100.00;98128.23;272132;1279;22440;-83
2023/05/15 08:56:44;;;;;;;4.50;3.30;;;;;;;15.43;100.00;98128.98;271968;1269;22513;-83
2023/05/15 09:02:46;;;;;;;4.50;2.60;;;;;;;15.54;100.00;98129.12;271750;1279;22520;-83
2023/05/15 09:08:48;;;;;;;5.10;2.90;;;;;;;15.63;100.00;98141.60;271541;1279;22893;-83
2023/05/15 09:14:50;;;;;;;4.20;2.70;;;;;;;15.74;100.00;98147.66;270455;1269;22592;-82
2023/05/15 09:20:52;;;;;;;4.70;2.60;;;;;;;15.84;100.00;98147.61;270869;1269;23403;-83
2023/05/15 09:27:05;;;;;;;6.10;2.80;;;;;;;15.95;100.00;98140.08;270533;1279;22549;-83
2023/05/15 09:33:08;;;;;;;3.70;2.30;;;;;;;15.98;100.00;98140.00;271352;1279;24339;-84
2023/05/15 09:39:09;;;;;;;3.30;2.40;;;;;;;15.85;100.00;98145.15;270269;1279;23330;-82
2023/05/15 09:45:17;;;;;;;2.90;2.60;;;;;;;15.93;100.00;98156.79;270179;1270;22617;-82
2023/05/15 09:51:21;;;;;;;2.80;1.60;;;;;;;15.99;100.00;98158.84;269990;1262;22536;-83
2023/05/15 09:57:26;;;;;;;3.10;2.10;;;;;;;15.93;100.00;98148.58;270587;1267;22464;-84
2023/05/15 10:03:43;;;;;;;6.30;2.80;;;;;;;15.87;100.00;98143.92;271547;1271;22438;-84
2023/05/15 10:09:46;;;;;;;5.30;3.40;;;;;;;15.90;100.00;98152.74;272577;1272;22569;-82
2023/05/15 10:15:48;;;;;;;4.20;2.70;;;;;;;15.96;100.00;98147.95;272271;1272;23014;-83
2023/05/15 10:21:51;;;;;;;5.00;2.50;;;;;;;16.07;100.00;98148.45;272307;1263;22498;-83
2023/05/15 10:27:53;;;;;;;5.00;2.80;;;;;;;16.10;100.00;98158.97;272989;1272;22373;-84
2023/05/15 10:33:55;;;;;;;5.20;3.20;;;;;;;16.16;100.00;98159.77;273116;1272;22402;-83
2023/05/15 10:39:58;;;;;;;7.00;4.20;;;;;;;16.13;100.00;98169.53;273197;1260;22410;-83
2023/05/15 10:46:00;;;;;;;6.00;3.90;;;;;;;16.09;100.00;98176.82;273025;1266;23017;-83
2023/05/15 10:52:02;;;;;;;6.40;4.30;;;;;;;16.10;100.00;98173.95;272833;1264;22240;-84
2023/05/15 10:58:08;;;;;;;7.00;3.60;;;;;;;16.18;100.00;98171.88;272450;1273;23135;-83
2023/05/15 11:04:18;;;;;;;7.30;4.30;;;;;;;16.29;100.00;98167.98;270860;1272;23307;-83
2023/05/15 11:10:27;;;;;;;8.80;4.70;;;;;;;16.30;100.00;98163.11;272920;1271;23427;-83
2023/05/15 11:16:51;;;;;;;6.20;4.20;;;;;;;16.22;100.00;98160.09;271966;1269;22368;-84
2023/05/15 11:22:58;;;;;;;4.70;4.00;;;;;;;16.20;100.00;98157.77;272800;1272;22550;-83
2023/05/15 11:29:17;;;;;;;9.80;4.60;;;;;;;16.21;100.00;98151.42;270927;1270;22605;-84
2023/05/15 11:35:21;;;;;;;7.80;3.90;;;;;;;16.33;100.00;98144.74;270995;1263;22524;-82
2023/05/15 11:41:30;;;;;;;10.80;4.30;;;;;;;16.53;100.00;98143.52;272426;1272;22178;-83
2023/05/15 11:47:32;;;;;;;6.70;4.10;;;;;;;16.88;99.89;98150.17;273082;1270;22433;-83
2023/05/15 11:53:34;;;;;;;6.80;3.30;;;;;;;17.25;99.18;98153.33;273129;1273;22498;-84
2023/05/15 11:59:35;;;;;;;5.60;3.50;;;;;;;17.68;99.18;98142.33;270347;1267;22499;-83
2023/05/15 12:05:40;;;;;;;7.80;3.20;;;;;;;18.17;97.54;98139.90;272720;1263;22394;-83
2023/05/15 12:12:13;;;;;;;4.80;2.30;;;;;;;18.50;96.68;98124.87;272385;1270;23431;-82
2023/05/15 12:18:15;;;;;;;3.70;1.80;;;;;;;19.00;95.63;98115.59;273077;1272;22208;-82
2023/05/15 12:24:19;;;;;;;4.50;2.30;;;;;;;19.48;94.05;98115.20;273210;1260;23061;-84
2023/05/15 12:30:20;;;;;;;9.10;5.00;;;;;;;19.65;92.20;98121.00;273290;1273;22418;-82
2023/05/15 12:36:22;;;;;;;4.00;2.30;;;;;;;19.42;91.43;98118.14;272878;1272;22422;-82
2023/05/15 12:42:25;;;;;;;3.30;2.50;;;;;;;19.13;91.11;98111.86;273150;1272;22382;-83
2023/05/15 12:48:31;;;;;;;3.70;1.90;;;;;;;19.08;91.61;98101.05;272943;1270;23103;-82
2023/05/15 12:55:07;;;;;;;2.60;1.70;;;;;;;19.02;91.15;98093.48;271954;1260;22436;-81
2023/05/15 13:01:16;;;;;;;4.00;1.80;;;;;;;18.77;89.79;98100.41;272845;1273;22282;-82
2023/05/15 13:07:17;;;;;;;5.70;1.40;;;;;;;18.46;89.45;98096.89;273012;1264;22365;-82
2023/05/15 13:13:19;;;;;;;4.10;1.70;;;;;;;18.25;89.39;98086.53;273130;1270;22203;-82
2023/05/15 13:19:21;;;;;;;2.60;1.40;;;;;;;18.20;89.82;98085.96;273203;1257;22363;-83
2023/05/15 13:25:23;;;;;;;4.30;1.60;;;;;;;18.11;90.74;98100.85;273094;1270;22306;-83
2023/05/15 13:31:25;;;;;;;5.20;1.50;;;;;;;17.77;91.20;98121.74;273168;1270;22618;-84
2023/05/15 13:37:26;;;;;;;5.00;2.20;;;;;;;17.52;91.39;98113.97;272885;1261;22848;-84
2023/05/15 13:43:28;;;;;;;2.30;1.90;;;;;;;17.24;93.07;98115.90;273153;1272;22207;-83
2023/05/15 13:49:30;;;;;;;3.90;1.70;;;;;;;17.11;93.37;98124.17;272005;1271;22527;-82
2023/05/15 13:55:32;;;;;;;3.40;1.90;;;;;;;17.10;93.43;98121.82;270956;1269;22526;-83
2023/05/15 14:01:33;;;;;;;1.90;1.60;;;;;;;17.35;94.46;98117.71;272542;1272;22778;-84
2023/05/15 14:07:35;;;;;;;2.20;1.30;;;;;;;17.54;93.53;98119.69;272064;1266;23769;-83
2023/05/15 14:13:37;;;;;;;1.20;1.00;;;;;;;17.70;91.79;98115.85;271398;1271;22553;-81
2023/05/15 14:19:41;;;;;;;1.00;0.70;;;;;;;17.98;91.00;98115.42;271748;1260;23821;-85
2023/05/15 14:25:43;;;;;;;2.20;0.80;;;;;;;17.92;88.83;98115.86;272843;1273;22252;-84
2023/05/15 14:31:45;;;;;;;1.80;1.10;;;;;;;17.82;88.20;98117.86;272570;1272;24304;-84
2023/05/15 14:37:49;;;;;;;1.10;0.80;;;;;;;17.79;88.51;98123.33;272279;1264;22556;-83
2023/05/15 14:43:51;;;;;;;1.40;0.70;;;;;;;17.87;89.50;98120.88;270744;1263;23121;-84
2023/05/15 14:49:53;;;;;;;2.40;0.60;;;;;;;18.09;89.52;98112.08;270807;1272;22552;-81
2023/05/15 14:55:57;;;;;;;1.60;1.50;;;;;;;18.14;88.64;98122.51;271882;1263;22389;-84
2023/05/15 15:01:59;;;;;;;5.50;2.50;;;;;;;17.93;88.96;98134.44;273133;1270;23612;-83
2023/05/15 15:08:02;;;;;;;5.40;3.10;;;;;;;17.60;89.01;98139.17;271903;1260;22533;-83
2023/05/15 15:14:04;;;;;;;10.50;3.20;;;;;;;17.36;90.33;98139.49;272588;1270;23273;-83
2023/05/15 15:20:06;;;;;;;5.40;4.20;;;;;;;17.42;93.47;98135.92;273111;1270;22424;-84
2023/05/15 15:26:08;;;;;;;8.40;3.90;;;;;;;17.40;92.15;98132.60;273181;1272;23852;-85
2023/05/15 15:32:09;;;;;;;5.40;3.70;;;;;;;17.20;92.65;98136.71;273194;1270;23194;-83
2023/05/15 15:38:12;;;;;;;4.70;3.40;;;;;;;17.06;92.99;98137.34;272527;1261;22534;-84
2023/05/15 15:44:13;;;;;;;4.70;3.80;;;;;;;16.90;93.20;98144.04;271413;1270;22183;-84
2023/05/15 15:50:15;;;;;;;7.40;3.60;;;;;;;16.95;93.40;98154.80;272661;1271;22578;-83
2023/05/15 15:56:17;;;;;;;4.60;2.80;;;;;;;17.14;93.08;98154.34;272823;1271;22439;-83
2023/05/15 16:02:20;;;;;;;2.90;2.30;;;;;;;17.24;92.25;98159.35;272951;1256;22168;-83
2023/05/15 16:08:23;;;;;;;3.00;2.30;;;;;;;17.18;91.54;98161.34;272637;1263;22591;-84
2023/05/15 16:14:26;;;;;;;5.40;2.40;;;;;;;17.01;91.63;98166.23;271111;1270;22599;-84
2023/05/15 16:20:28;;;;;;;4.40;2.20;;;;;;;16.88;92.08;98170.16;270515;1260;23134;-84
2023/05/15 16:26:30;;;;;;;5.60;2.60;;;;;;;16.74;92.14;98180.48;271282;1260;22405;-83
2023/05/15 16:32:32;;;;;;;3.90;2.50;;;;;;;16.67;92.24;98176.49;270821;1272;22724;-83
2023/05/15 16:38:34;;;;;;;6.80;3.30;;;;;;;16.62;92.59;98181.83;272624;1260;23146;-84
2023/05/15 16:44:35;;;;;;;3.10;2.20;;;;;;;16.58;92.51;98185.10;272489;1272;23568;-85
2023/05/15 16:50:37;;;;;;;3.70;2.40;;;;;;;16.52;91.86;98187.78;272507;1270;23275;-82
2023/05/15 16:56:38;;;;;;;2.50;1.50;;;;;;;16.50;90.84;98198.08;271414;1256;23762;-83
2023/05/15 17:02:41;;;;;;;1.30;1.10;;;;;;;16.47;89.08;98197.84;272200;1270;22557;-83
2023/05/15 17:08:45;;;;;;;3.10;1.20;;;;;;;16.36;88.25;98196.66;271329;1269;22168;-83
2023/05/15 17:14:47;;;;;;;3.50;1.70;;;;;;;16.18;87.68;98208.71;273121;1270;22402;-82
2023/05/15 17:20:50;;;;;;;5.40;1.50;;;;;;;16.06;87.19;98216.56;273170;1260;22272;-83
2023/05/15 17:26:52;;;;;;;3.00;2.20;;;;;;;15.92;86.78;98223.59;272636;1263;22260;-84
2023/05/15 17:32:53;;;;;;;2.90;1.90;;;;;;;15.76;86.64;98231.28;271280;1273;22530;-83
2023/05/15 17:38:55;;;;;;;2.70;1.90;;;;;;;15.60;86.78;98229.40;272780;1256;23453;-83
2023/05/15 17:44:57;;;;;;;3.40;1.70;;;;;;;15.51;86.70;98240.30;272707;1264;22575;-84
2023/05/15 17:51:00;;;;;;;4.70;1.80;;;;;;;15.39;87.10;98253.78;272779;1273;22418;-82
2023/05/15 17:57:02;;;;;;;4.20;1.70;;;;;;;15.26;87.14;98264.19;271241;1259;22547;-82
2023/05/15 18:03:07;;;;;;;6.90;2.50;;;;;;;14.99;86.93;98265.64;271818;1269;23317;-82
2023/05/15 18:09:09;;;;;;;3.20;1.70;;;;;;;14.71;86.70;98262.20;271705;1269;22547;-82
2023/05/15 18:15:11;;;;;;;2.80;1.60;;;;;;;14.51;86.61;98266.15;272451;1269;26509;-82
2023/05/15 18:21:13;;;;;;;6.10;2.20;;;;;;;14.48;86.17;98277.83;271751;1259;22490;-82
2023/05/15 18:27:15;;;;;;;4.90;2.40;;;;;;;14.47;85.89;98299.83;271557;1268;22498;-83
2023/05/15 18:33:17;;;;;;;4.00;2.00;;;;;;;14.44;85.76;98312.61;272675;1264;22698;-82
2023/05/15 18:39:19;;;;;;;3.00;2.10;;;;;;;14.34;85.52;98314.48;273060;1257;22554;-82
2023/05/15 18:45:21;;;;;;;3.80;2.30;;;;;;;14.14;85.36;98319.94;272816;1267;22246;-83
2023/05/15 18:51:25;;;;;;;3.90;2.50;;;;;;;13.95;85.70;98330.33;273283;1259;23903;-83
2023/05/15 18:57:26;;;;;;;5.40;2.40;;;;;;;13.81;85.58;98334.36;272661;1267;22966;-84
2023/05/15 19:03:29;;;;;;;4.00;1.90;;;;;;;13.74;85.77;98339.64;271974;1260;23160;-83
2023/05/15 19:09:31;;;;;;;3.30;1.80;;;;;;;13.64;85.92;98345.64;272427;1256;22979;-84
2023/05/15 19:15:32;;;;;;;3.00;2.00;;;;;;;13.56;85.93;98357.36;273408;1262;22632;-82
2023/05/15 19:21:36;;;;;;;3.40;1.90;;;;;;;13.45;86.10;98366.91;273670;1266;25498;-84
2023/05/15 19:27:39;;;;;;;6.50;2.00;;;;;;;13.29;86.31;98371.79;270809;1260;22599;-83
2023/05/15 19:33:40;;;;;;;5.70;1.80;;;;;;;13.09;86.64;98370.62;271839;1256;22473;-85
2023/05/15 19:39:45;;;;;;;7.00;2.20;;;;;;;12.89;86.78;98372.97;272586;1267;22548;-82
2023/05/15 19:45:47;;;;;;;8.90;3.00;;;;;;;12.77;87.12;98379.58;273545;1262;23254;-83
2023/05/15 19:51:48;;;;;;;7.00;2.80;;;;;;;12.74;87.77;98386.13;272737;1259;22212;-82
2023/05/15 19:57:54;;;;;;;4.20;2.20;;;;;;;12.72;88.47;98390.69;273029;1266;22372;-83
2023/05/15 20:03:56;;;;;;;4.40;2.10;;;;;;;12.68;88.96;98387.24;272460;1267;22524;-83
2023/05/15 20:09:57;;;;;;;3.50;2.00;;;;;;;12.61;89.27;98383.06;273053;1256;22471;-82
2023/05/15 20:16:02;;;;;;;10.20;2.20;;;;;;;12.50;89.47;98383.77;273390;1257;22213;-83
2023/05/15 20:22:04;;;;;;;4.80;2.40;;;;;;;12.38;89.62;98383.14;273822;1267;22333;-84
2023/05/15 20:28:06;;;;;;;4.20;2.20;;;;;;;12.25;89.62;98391.52;273723;1259;22396;-85
2023/05/15 20:34:08;;;;;;;4.00;2.30;;;;;;;12.13;89.55;98398.23;273440;1269;23255;-82
2023/05/15 20:40:11;;;;;;;8.60;2.40;;;;;;;11.96;90.12;98400.03;273738;1252;81632;-83
2023/05/15 20:46:13;;;;;;;5.20;2.20;;;;;;;11.85;91.11;98408.86;273750;1256;24071;-82
2023/05/15 20:52:15;;;;;;;3.30;2.30;;;;;;;11.68;91.21;98420.96;273641;1262;23393;-83
2023/05/15 20:58:20;;;;;;;4.10;2.50;;;;;;;11.49;91.04;98427.88;272749;1257;22655;-83
2023/05/15 21:04:21;;;;;;;6.00;3.10;;;;;;;11.34;91.59;98433.37;271550;1268;22208;-83
2023/05/15 21:10:33;;;;;;;5.20;3.50;;;;;;;11.16;91.52;98432.36;273866;1257;22360;-83
2023/05/15 21:16:35;;;;;;;4.70;3.00;;;;;;;11.00;92.79;98430.41;273527;1259;23290;-82
2023/05/15 21:22:36;;;;;;;5.70;3.20;;;;;;;11.03;93.57;98437.20;273634;1268;22386;-82
2023/05/15 21:28:38;;;;;;;8.00;3.80;;;;;;;11.04;93.94;98443.70;273424;1269;22543;-83
2023/05/15 21:34:39;;;;;;;5.20;2.90;;;;;;;11.04;94.46;98446.44;271743;1267;22424;-83
2023/05/15 21:40:42;;;;;;;5.10;3.40;;;;;;;10.96;94.76;98445.27;273269;1259;22230;-86
2023/05/15 21:46:44;;;;;;;4.50;3.20;;;;;;;10.90;94.97;98450.89;273402;1267;22547;-83
2023/05/15 21:52:49;;;;;;;6.60;2.90;;;;;;;10.82;95.29;98453.31;272865;1261;22397;-83
2023/05/15 21:58:51;;;;;;;5.10;2.70;;;;;;;10.72;95.26;98454.31;273675;1269;22457;-82
2023/05/15 22:04:53;;;;;;;5.40;3.10;;;;;;;10.56;95.40;98451.69;273774;1267;23023;-84
2023/05/15 22:10:55;;;;;;;5.40;2.60;;;;;;;10.44;95.61;98456.03;273850;1267;22967;-83
2023/05/15 22:16:56;;;;;;;6.20;2.50;;;;;;;10.34;95.98;98452.09;271872;1256;23269;-84
2023/05/15 22:22:58;;;;;;;3.90;2.70;;;;;;;10.25;96.56;98449.02;272090;1267;23077;-86
2023/05/15 22:28:59;;;;;;;12.20;3.40;;;;;;;10.22;97.20;98446.66;273581;1266;22524;-83
2023/05/15 22:35:01;;;;;;;6.30;2.90;;;;;;;10.20;97.63;98444.86;272800;1267;25536;-83
2023/05/15 22:41:03;;;;;;;5.60;2.70;;;;;;;10.22;98.24;98450.48;272507;1267;23263;-83
2023/05/15 22:47:06;;;;;;;3.90;2.20;;;;;;;10.25;98.41;98458.63;271851;1269;22524;-85
2023/05/15 22:53:09;;;;;;;3.50;2.20;;;;;;;10.26;98.55;98462.70;271097;1253;22534;-83
2023/05/15 22:59:11;;;;;;;3.50;2.20;;;;;;;10.23;98.30;98468.31;271526;1264;24095;-83
2023/05/15 23:05:12;;;;;;;2.10;1.60;;;;;;;10.18;98.34;98474.23;271735;1260;22570;-83
2023/05/15 23:11:14;;;;;;;3.70;2.00;;;;;;;10.11;98.64;98478.57;271705;1269;22228;-83
2023/05/15 23:17:16;;;;;;;3.20;2.20;;;;;;;10.08;98.89;98472.00;272578;1256;22439;-85
2023/05/15 23:23:18;;;;;;;2.90;2.10;;;;;;;10.04;98.47;98473.29;271668;1269;22550;-83
2023/05/15 23:29:20;;;;;;;2.80;1.80;;;;;;;10.02;98.76;98476.71;271571;1267;22432;-83
2023/05/15 23:35:21;;;;;;;2.80;1.60;;;;;;;10.03;99.37;98476.02;270565;1269;22683;-84
2023/05/15 23:41:25;;;;;;;2.90;2.20;;;;;;;10.04;99.78;98472.42;271240;1268;22167;-83
2023/05/15 23:47:26;;;;;;;4.20;1.90;;;;;;;10.05;99.70;98478.21;271656;1256;22678;-85
2023/05/15 23:53:28;;;;;;;5.20;1.80;;;;;;;10.04;99.80;98480.32;272728;1267;22388;-84
2023/05/15 23:59:30;;;;;;;5.20;3.00;;;;;;;10.07;100.00;98480.83;272846;1268;22395;-86
